PWSweather.com
Personal Weather Stations
Station Observations
KMNHANSK2
Thompson Farms, Hanska, MN 56041

Thompson FarmsHanska, MN 56041

Lat: 44.170119, Lon: -94.381619

Elevation: 1004

Station Type: Wireless Davis Instruments Vantage Pro2 Plus

http://www.somnwx.com/thompsonfarms/

Latest ConditionsUpdated 1:50:01 PM CST Sunday, Nov 19, 2017
Currently Today's Max Today's Min Today's Average
Temperature 49.5°F9.7°C 49.8°F9.9°C 14.1°F-9.9°C 25.1°F-3.8°C
Dew Point 30.1°F-1.1°C 30.9°F-0.6°C 10.8°F-11.8°C 18.3°F-7.6°C
Winds 3.5 mph WSW5.6 kmh WSW 11.5 mph NW18.5 kmh NW - 3.3 mph 5.3 kmh
Wind Gusts 6.9 mph11.1 kmh 16.1 mph25.9 kmh - -
Humidity 47% 88% 47% 77%
Pressure 29.99 in1015.6 mb 30.19 in1022.4 mb 29.99 in1015.6 mb -
Hour Temp Dew Point Humidity Winds Wind Gusts Pressure Precip Precip Rate Daily Precip Total
01:50 PM 49.5°F9.7°C 30.1°F-1.1°C 47% 3.5 mph WSW5.6 kmh WSW 6.9 mph11.1 kmh 29.99 in1015.6 mb - 0.00 in0.0 mm 0.00 in0.0 mm
01:45 PM 49.8°F9.9°C 30.9°F-0.6°C 48% 4.6 mph WSW7.4 kmh WSW 11.5 mph18.5 kmh 30.00 in1015.9 mb - 0.00 in0.0 mm 0.00 in0.0 mm
01:40 PM 49.2°F9.6°C 30.3°F-0.9°C 48% 2.3 mph W3.7 kmh W 4.6 mph7.4 kmh 30.00 in1015.9 mb - 0.00 in0.0 mm 0.00 in0.0 mm
01:35 PM 49.1°F9.5°C 30.2°F-1.0°C 48% 3.5 mph W5.6 kmh W 3.5 mph5.6 kmh 30.00 in1015.9 mb - 0.00 in0.0 mm 0.00 in0.0 mm
01:30 PM 49.0°F9.4°C 30.2°F-1.0°C 48% 5.8 mph W9.3 kmh W 10.4 mph16.7 kmh 30.00 in1015.9 mb - 0.00 in0.0 mm 0.00 in0.0 mm
01:25 PM 48.8°F9.3°C 30.5°F-0.8°C 49% 3.5 mph W5.6 kmh W 9.2 mph14.8 kmh 30.00 in1015.9 mb - 0.00 in0.0 mm 0.00 in0.0 mm
01:20 PM 49.2°F9.6°C 30.3°F-0.9°C 48% 6.9 mph WSW11.1 kmh WSW 9.2 mph14.8 kmh 30.00 in1015.9 mb - 0.00 in0.0 mm 0.00 in0.0 mm
01:15 PM 48.7°F9.3°C 30.8°F-0.7°C 50% 3.5 mph W5.6 kmh W 9.2 mph14.8 kmh 30.00 in1015.9 mb - 0.00 in0.0 mm 0.00 in0.0 mm
01:10 PM 48.3°F9.1°C 30.5°F-0.8°C 50% 4.6 mph W7.4 kmh W 6.9 mph11.1 kmh 30.01 in1016.3 mb - 0.00 in0.0 mm 0.00 in0.0 mm
01:00 PM 47.8°F8.8°C 30.5°F-0.8°C 51% 5.8 mph W9.3 kmh W 11.5 mph18.5 kmh 30.01 in1016.3 mb - 0.00 in0.0 mm 0.00 in0.0 mm
12:55 PM 47.4°F8.6°C 30.1°F-1.1°C 51% 5.8 mph W9.3 kmh W 11.5 mph18.5 kmh 30.02 in1016.6 mb - 0.00 in0.0 mm 0.00 in0.0 mm
12:50 PM 47.1°F8.4°C 30.4°F-0.9°C 52% 5.8 mph W9.3 kmh W 11.5 mph18.5 kmh 30.02 in1016.6 mb - 0.00 in0.0 mm 0.00 in0.0 mm
12:45 PM 46.7°F8.2°C 30.5°F-0.8°C 53% 4.6 mph WSW7.4 kmh WSW 8.1 mph13.0 kmh 30.02 in1016.6 mb - 0.00 in0.0 mm 0.00 in0.0 mm
12:40 PM 46.5°F8.1°C 30.7°F-0.7°C 54% 4.6 mph WSW7.4 kmh WSW 11.5 mph18.5 kmh 30.02 in1016.6 mb - 0.00 in0.0 mm 0.00 in0.0 mm
12:35 PM 45.9°F7.7°C 30.1°F-1.1°C 54% 1.2 mph SW1.9 kmh SW 4.6 mph7.4 kmh 30.03 in1016.9 mb - 0.00 in0.0 mm 0.00 in0.0 mm
12:30 PM 45.7°F7.6°C 30.4°F-0.9°C 55% 4.6 mph WSW7.4 kmh WSW 8.1 mph13.0 kmh 30.04 in1017.3 mb - 0.00 in0.0 mm 0.00 in0.0 mm
12:25 PM 44.9°F7.2°C 30.1°F-1.1°C 56% 4.6 mph WSW7.4 kmh WSW 3.5 mph5.6 kmh 30.04 in1017.3 mb - 0.00 in0.0 mm 0.00 in0.0 mm
12:20 PM 44.5°F6.9°C 29.8°F-1.2°C 56% 4.6 mph SW7.4 kmh SW 5.8 mph9.3 kmh 30.04 in1017.3 mb - 0.00 in0.0 mm 0.00 in0.0 mm
12:15 PM 44.0°F6.7°C 30.1°F-1.1°C 58% 4.6 mph WSW7.4 kmh WSW 5.8 mph9.3 kmh 30.05 in1017.6 mb - 0.00 in0.0 mm 0.00 in0.0 mm
12:10 PM 43.4°F6.3°C 29.6°F-1.3°C 58% 4.6 mph SW7.4 kmh SW 6.9 mph11.1 kmh 30.05 in1017.6 mb - 0.00 in0.0 mm 0.00 in0.0 mm
12:00 PM 42.7°F5.9°C 29.4°F-1.4°C 59% 4.6 mph SW7.4 kmh SW 8.1 mph13.0 kmh 30.06 in1017.9 mb - 0.00 in0.0 mm 0.00 in0.0 mm
11:55 AM 41.7°F5.4°C 28.0°F-2.2°C 58% 4.6 mph WSW7.4 kmh WSW 6.9 mph11.1 kmh 30.06 in1017.9 mb - 0.00 in0.0 mm 0.00 in0.0 mm
11:50 AM 41.9°F5.5°C 28.1°F-2.2°C 58% 6.9 mph WSW11.1 kmh WSW 10.4 mph16.7 kmh 30.07 in1018.3 mb - 0.00 in0.0 mm 0.00 in0.0 mm
11:45 AM 41.8°F5.4°C 28.5°F-1.9°C 59% 4.6 mph WSW7.4 kmh WSW 6.9 mph11.1 kmh 30.07 in1018.3 mb - 0.00 in0.0 mm 0.00 in0.0 mm
11:40 AM 41.2°F5.1°C 27.9°F-2.3°C 59% 3.5 mph W5.6 kmh W 9.2 mph14.8 kmh 30.07 in1018.3 mb - 0.00 in0.0 mm 0.00 in0.0 mm
11:35 AM 40.5°F4.7°C 27.3°F-2.6°C 59% 3.5 mph WSW5.6 kmh WSW 4.6 mph7.4 kmh 30.08 in1018.6 mb - 0.00 in0.0 mm 0.00 in0.0 mm
11:30 AM 40.3°F4.6°C 27.9°F-2.3°C 61% 5.8 mph WSW9.3 kmh WSW 8.1 mph13.0 kmh 30.08 in1018.6 mb - 0.00 in0.0 mm 0.00 in0.0 mm
11:25 AM 38.9°F3.8°C 27.4°F-2.6°C 63% 4.6 mph WSW7.4 kmh WSW 8.1 mph13.0 kmh 30.08 in1018.6 mb - 0.00 in0.0 mm 0.00 in0.0 mm
11:20 AM 38.7°F3.7°C 27.2°F-2.7°C 63% 6.9 mph WSW11.1 kmh WSW 10.4 mph16.7 kmh 30.08 in1018.6 mb - 0.00 in0.0 mm 0.00 in0.0 mm
11:15 AM 38.3°F3.5°C 27.2°F-2.7°C 64% 5.8 mph WSW9.3 kmh WSW 5.8 mph9.3 kmh 30.08 in1018.6 mb - 0.00 in0.0 mm 0.00 in0.0 mm
11:10 AM 37.9°F3.3°C 27.2°F-2.7°C 65% 8.1 mph SW13.0 kmh SW 11.5 mph18.5 kmh 30.09 in1019.0 mb - 0.00 in0.0 mm 0.00 in0.0 mm
11:00 AM 36.5°F2.5°C 26.6°F-3.0°C 67% 6.9 mph SW11.1 kmh SW 9.2 mph14.8 kmh 30.09 in1019.0 mb - 0.00 in0.0 mm 0.00 in0.0 mm
10:55 AM 35.7°F2.1°C 25.8°F-3.4°C 67% 4.6 mph SW7.4 kmh SW 8.1 mph13.0 kmh 30.09 in1019.0 mb - 0.00 in0.0 mm 0.00 in0.0 mm
10:50 AM 35.4°F1.9°C 25.9°F-3.4°C 68% 4.6 mph WSW7.4 kmh WSW 6.9 mph11.1 kmh 30.09 in1019.0 mb - 0.00 in0.0 mm 0.00 in0.0 mm
10:45 AM 35.7°F2.1°C 25.8°F-3.4°C 67% 4.6 mph SW7.4 kmh SW 8.1 mph13.0 kmh 30.10 in1019.3 mb - 0.00 in0.0 mm 0.00 in0.0 mm
10:40 AM 35.0°F1.7°C 26.2°F-3.2°C 70% 5.8 mph SW9.3 kmh SW 8.1 mph13.0 kmh 30.10 in1019.3 mb - 0.00 in0.0 mm 0.00 in0.0 mm
10:35 AM 34.5°F1.4°C 26.0°F-3.3°C 71% 4.6 mph WSW7.4 kmh WSW 6.9 mph11.1 kmh 30.11 in1019.6 mb - 0.00 in0.0 mm 0.00 in0.0 mm
10:30 AM 34.0°F1.1°C 26.0°F-3.3°C 72% 5.8 mph WSW9.3 kmh WSW 8.1 mph13.0 kmh 30.11 in1019.6 mb - 0.00 in0.0 mm 0.00 in0.0 mm
10:25 AM 33.0°F0.6°C 25.7°F-3.5°C 74% 5.8 mph WSW9.3 kmh WSW 8.1 mph13.0 kmh 30.11 in1019.6 mb - 0.00 in0.0 mm 0.00 in0.0 mm
10:20 AM 32.0°F0.0°C 24.6°F-4.1°C 74% 4.6 mph WSW7.4 kmh WSW 8.1 mph13.0 kmh 30.11 in1019.6 mb - 0.00 in0.0 mm 0.00 in0.0 mm
10:15 AM 31.8°F-0.1°C 24.1°F-4.4°C 73% 5.8 mph WSW9.3 kmh WSW 9.2 mph14.8 kmh 30.11 in1019.6 mb - 0.00 in0.0 mm 0.00 in0.0 mm
10:10 AM 31.8°F-0.1°C 24.4°F-4.2°C 74% 4.6 mph SW7.4 kmh SW 6.9 mph11.1 kmh 30.11 in1019.6 mb - 0.00 in0.0 mm 0.00 in0.0 mm
10:00 AM 30.9°F-0.6°C 23.9°F-4.5°C 75% 4.6 mph SW7.4 kmh SW 8.1 mph13.0 kmh 30.11 in1019.6 mb - 0.00 in0.0 mm 0.00 in0.0 mm
09:55 AM 30.5°F-0.8°C 23.2°F-4.9°C 74% 5.8 mph WSW9.3 kmh WSW 8.1 mph13.0 kmh 30.12 in1020.0 mb - 0.00 in0.0 mm 0.00 in0.0 mm
09:50 AM 30.2°F-1.0°C 23.2°F-4.9°C 75% 4.6 mph WSW7.4 kmh WSW 5.8 mph9.3 kmh 30.12 in1020.0 mb - 0.00 in0.0 mm 0.00 in0.0 mm
09:45 AM 29.9°F-1.2°C 23.2°F-4.9°C 76% 4.6 mph SW7.4 kmh SW 6.9 mph11.1 kmh 30.12 in1020.0 mb - 0.00 in0.0 mm 0.00 in0.0 mm
09:40 AM 29.6°F-1.3°C 23.2°F-4.9°C 77% 4.6 mph SW7.4 kmh SW 8.1 mph13.0 kmh 30.12 in1020.0 mb - 0.00 in0.0 mm 0.00 in0.0 mm
09:35 AM 28.6°F-1.9°C 23.0°F-5.0°C 79% 3.5 mph WSW5.6 kmh WSW 6.9 mph11.1 kmh 30.12 in1020.0 mb - 0.00 in0.0 mm 0.00 in0.0 mm
09:30 AM 28.0°F-2.2°C 22.9°F-5.1°C 81% 5.8 mph SW9.3 kmh SW 9.2 mph14.8 kmh 30.12 in1020.0 mb - 0.00 in0.0 mm 0.00 in0.0 mm
09:25 AM 27.6°F-2.4°C 22.8°F-5.1°C 82% 6.9 mph SW11.1 kmh SW 11.5 mph18.5 kmh 30.13 in1020.3 mb - 0.00 in0.0 mm 0.00 in0.0 mm
09:20 AM 27.0°F-2.8°C 21.9°F-5.6°C 81% 6.9 mph SSW11.1 kmh SSW 8.1 mph13.0 kmh 30.13 in1020.3 mb - 0.00 in0.0 mm 0.00 in0.0 mm
09:15 AM 26.5°F-3.1°C 22.1°F-5.5°C 83% 5.8 mph SW9.3 kmh SW 5.8 mph9.3 kmh 30.13 in1020.3 mb - 0.00 in0.0 mm 0.00 in0.0 mm
09:10 AM 25.8°F-3.4°C 21.4°F-5.9°C 83% 4.6 mph SW7.4 kmh SW 4.6 mph7.4 kmh 30.13 in1020.3 mb - 0.00 in0.0 mm 0.00 in0.0 mm
09:00 AM 25.0°F-3.9°C 21.1°F-6.1°C 85% 3.5 mph SW5.6 kmh SW 4.6 mph7.4 kmh 30.14 in1020.7 mb - 0.00 in0.0 mm 0.00 in0.0 mm
08:55 AM 24.4°F-4.2°C 20.5°F-6.4°C 85% 2.3 mph WSW3.7 kmh WSW 6.9 mph11.1 kmh 30.14 in1020.7 mb - 0.00 in0.0 mm 0.00 in0.0 mm
08:50 AM 23.7°F-4.6°C 20.1°F-6.6°C 86% 5.8 mph SW9.3 kmh SW 8.1 mph13.0 kmh 30.14 in1020.7 mb - 0.00 in0.0 mm 0.00 in0.0 mm
08:45 AM 23.3°F-4.8°C 19.7°F-6.8°C 86% 3.5 mph SW5.6 kmh SW 3.5 mph5.6 kmh 30.14 in1020.7 mb - 0.00 in0.0 mm 0.00 in0.0 mm
08:40 AM 23.0°F-5.0°C 19.5°F-6.9°C 86% 3.5 mph SW5.6 kmh SW 4.6 mph7.4 kmh 30.14 in1020.7 mb - 0.00 in0.0 mm 0.00 in0.0 mm
08:35 AM 22.6°F-5.2°C 19.3°F-7.1°C 87% 3.5 mph WSW5.6 kmh WSW 3.5 mph5.6 kmh 30.14 in1020.7 mb - 0.00 in0.0 mm 0.00 in0.0 mm
08:30 AM 22.3°F-5.4°C 18.7°F-7.4°C 86% 4.6 mph WSW7.4 kmh WSW 4.6 mph7.4 kmh 30.14 in1020.7 mb - 0.00 in0.0 mm 0.00 in0.0 mm
08:25 AM 22.0°F-5.6°C 18.7°F-7.4°C 87% 4.6 mph WSW7.4 kmh WSW 4.6 mph7.4 kmh 30.15 in1021.0 mb - 0.00 in0.0 mm 0.00 in0.0 mm
08:20 AM 21.5°F-5.8°C 18.5°F-7.5°C 88% 4.6 mph SW7.4 kmh SW 4.6 mph7.4 kmh 30.14 in1020.7 mb - 0.00 in0.0 mm 0.00 in0.0 mm
08:15 AM 20.6°F-6.3°C 17.6°F-8.0°C 88% 2.3 mph SW3.7 kmh SW 3.5 mph5.6 kmh 30.14 in1020.7 mb - 0.00 in0.0 mm 0.00 in0.0 mm
08:10 AM 19.6°F-6.9°C 16.7°F-8.5°C 88% 4.6 mph SW7.4 kmh SW 5.8 mph9.3 kmh 30.14 in1020.7 mb - 0.00 in0.0 mm 0.00 in0.0 mm
08:00 AM 17.7°F-7.9°C 14.7°F-9.6°C 88% 3.5 mph SSW5.6 kmh SSW 4.6 mph7.4 kmh 30.14 in1020.7 mb - 0.00 in0.0 mm 0.00 in0.0 mm
07:55 AM 17.2°F-8.2°C 14.3°F-9.8°C 88% 3.5 mph SSW5.6 kmh SSW 4.6 mph7.4 kmh 30.15 in1021.0 mb - 0.00 in0.0 mm 0.00 in0.0 mm
07:50 AM 17.0°F-8.3°C 14.1°F-9.9°C 88% 3.5 mph SSW5.6 kmh SSW 3.5 mph5.6 kmh 30.15 in1021.0 mb - 0.00 in0.0 mm 0.00 in0.0 mm
07:45 AM 16.9°F-8.4°C 13.9°F-10.1°C 88% 2.3 mph SW3.7 kmh SW 3.5 mph5.6 kmh 30.15 in1021.0 mb - 0.00 in0.0 mm 0.00 in0.0 mm
07:40 AM 16.5°F-8.6°C 13.5°F-10.3°C 88% 2.3 mph SW3.7 kmh SW 3.5 mph5.6 kmh 30.15 in1021.0 mb - 0.00 in0.0 mm 0.00 in0.0 mm
07:35 AM 16.2°F-8.8°C 13.3°F-10.4°C 88% 2.3 mph SW3.7 kmh SW 3.5 mph5.6 kmh 30.15 in1021.0 mb - 0.00 in0.0 mm 0.00 in0.0 mm
07:30 AM 16.1°F-8.8°C 13.2°F-10.4°C 88% 2.3 mph SW3.7 kmh SW 3.5 mph5.6 kmh 30.15 in1021.0 mb - 0.00 in0.0 mm 0.00 in0.0 mm
07:25 AM 16.1°F-8.8°C 13.2°F-10.4°C 88% 2.3 mph SW3.7 kmh SW 3.5 mph5.6 kmh 30.15 in1021.0 mb - 0.00 in0.0 mm 0.00 in0.0 mm
07:20 AM 16.0°F-8.9°C 13.1°F-10.5°C 88% 2.3 mph SW3.7 kmh SW 2.3 mph3.7 kmh 30.15 in1021.0 mb - 0.00 in0.0 mm 0.00 in0.0 mm
07:15 AM 15.9°F-8.9°C 13.0°F-10.6°C 88% 1.2 mph SW1.9 kmh SW 3.5 mph5.6 kmh 30.15 in1021.0 mb - 0.00 in0.0 mm 0.00 in0.0 mm
07:10 AM 15.8°F-9.0°C 12.6°F-10.8°C 87% 1.2 mph SW1.9 kmh SW 3.5 mph5.6 kmh 30.15 in1021.0 mb - 0.00 in0.0 mm 0.00 in0.0 mm
07:00 AM 15.7°F-9.1°C 12.5°F-10.8°C 87% 1.2 mph SW1.9 kmh SW 2.3 mph3.7 kmh 30.15 in1021.0 mb - 0.00 in0.0 mm 0.00 in0.0 mm
06:55 AM 15.8°F-9.0°C 12.6°F-10.8°C 87% 1.2 mph SW1.9 kmh SW 2.3 mph3.7 kmh 30.15 in1021.0 mb - 0.00 in0.0 mm 0.00 in0.0 mm
06:50 AM 15.9°F-8.9°C 13.0°F-10.6°C 88% 2.3 mph SW3.7 kmh SW 3.5 mph5.6 kmh 30.15 in1021.0 mb - 0.00 in0.0 mm 0.00 in0.0 mm
06:45 AM 15.9°F-8.9°C 13.0°F-10.6°C 88% 2.3 mph SW3.7 kmh SW 3.5 mph5.6 kmh 30.15 in1021.0 mb - 0.00 in0.0 mm 0.00 in0.0 mm
06:40 AM 15.9°F-8.9°C 13.0°F-10.6°C 88% 1.2 mph WSW1.9 kmh WSW 2.3 mph3.7 kmh 30.15 in1021.0 mb - 0.00 in0.0 mm 0.00 in0.0 mm
06:35 AM 15.8°F-9.0°C 12.9°F-10.6°C 88% 1.2 mph WSW1.9 kmh WSW 2.3 mph3.7 kmh 30.16 in1021.3 mb - 0.00 in0.0 mm 0.00 in0.0 mm
06:30 AM 15.8°F-9.0°C 12.9°F-10.6°C 88% 1.2 mph WSW1.9 kmh WSW 2.3 mph3.7 kmh 30.16 in1021.3 mb - 0.00 in0.0 mm 0.00 in0.0 mm
06:25 AM 15.7°F-9.1°C 12.8°F-10.7°C 88% Calm Calm 1.2 mph1.9 kmh 30.16 in1021.3 mb - 0.00 in0.0 mm 0.00 in0.0 mm
06:20 AM 15.6°F-9.1°C 12.7°F-10.7°C 88% 1.2 mph WSW1.9 kmh WSW 2.3 mph3.7 kmh 30.16 in1021.3 mb - 0.00 in0.0 mm 0.00 in0.0 mm
06:15 AM 15.5°F-9.2°C 12.6°F-10.8°C 88% 2.3 mph WSW3.7 kmh WSW 3.5 mph5.6 kmh 30.16 in1021.3 mb - 0.00 in0.0 mm 0.00 in0.0 mm
06:10 AM 15.3°F-9.3°C 12.4°F-10.9°C 88% 2.3 mph WSW3.7 kmh WSW 3.5 mph5.6 kmh 30.16 in1021.3 mb - 0.00 in0.0 mm 0.00 in0.0 mm
06:00 AM 14.7°F-9.6°C 11.8°F-11.2°C 88% 1.2 mph WSW1.9 kmh WSW 2.3 mph3.7 kmh 30.16 in1021.3 mb - 0.00 in0.0 mm 0.00 in0.0 mm
05:55 AM 14.4°F-9.8°C 11.5°F-11.4°C 88% Calm Calm 1.2 mph1.9 kmh 30.16 in1021.3 mb - 0.00 in0.0 mm 0.00 in0.0 mm
05:50 AM 14.3°F-9.8°C 11.1°F-11.6°C 87% 1.2 mph SW1.9 kmh SW 2.3 mph3.7 kmh 30.15 in1021.0 mb - 0.00 in0.0 mm 0.00 in0.0 mm
05:45 AM 14.2°F-9.9°C 11.0°F-11.7°C 87% Calm Calm 1.2 mph1.9 kmh 30.15 in1021.0 mb - 0.00 in0.0 mm 0.00 in0.0 mm
05:40 AM 14.1°F-9.9°C 10.9°F-11.7°C 87% 1.2 mph SW1.9 kmh SW 2.3 mph3.7 kmh 30.15 in1021.0 mb - 0.00 in0.0 mm 0.00 in0.0 mm
05:35 AM 14.1°F-9.9°C 11.0°F-11.7°C 87% 1.2 mph SW1.9 kmh SW 2.3 mph3.7 kmh 30.15 in1021.0 mb - 0.00 in0.0 mm 0.00 in0.0 mm
05:30 AM 14.2°F-9.9°C 10.8°F-11.8°C 86% 1.2 mph SW1.9 kmh SW 2.3 mph3.7 kmh 30.15 in1021.0 mb - 0.00 in0.0 mm 0.00 in0.0 mm
05:25 AM 14.4°F-9.8°C 11.0°F-11.7°C 86% 1.2 mph SW1.9 kmh SW 2.3 mph3.7 kmh 30.15 in1021.0 mb - 0.00 in0.0 mm 0.00 in0.0 mm
05:20 AM 14.6°F-9.7°C 11.2°F-11.6°C 86% 1.2 mph SW1.9 kmh SW 2.3 mph3.7 kmh 30.16 in1021.3 mb - 0.00 in0.0 mm 0.00 in0.0 mm
05:15 AM 14.7°F-9.6°C 11.3°F-11.5°C 86% 1.2 mph SW1.9 kmh SW 2.3 mph3.7 kmh 30.15 in1021.0 mb - 0.00 in0.0 mm 0.00 in0.0 mm
05:10 AM 14.8°F-9.6°C 11.4°F-11.4°C 86% 2.3 mph SSW3.7 kmh SSW 3.5 mph5.6 kmh 30.15 in1021.0 mb - 0.00 in0.0 mm 0.00 in0.0 mm
05:00 AM 15.1°F-9.4°C 11.4°F-11.4°C 85% 1.2 mph SW1.9 kmh SW 2.3 mph3.7 kmh 30.15 in1021.0 mb - 0.00 in0.0 mm 0.00 in0.0 mm
04:55 AM 15.3°F-9.3°C 11.6°F-11.3°C 85% 2.3 mph SW3.7 kmh SW 3.5 mph5.6 kmh 30.15 in1021.0 mb - 0.00 in0.0 mm 0.00 in0.0 mm
04:50 AM 15.4°F-9.2°C 12.0°F-11.1°C 86% 1.2 mph W1.9 kmh W 2.3 mph3.7 kmh 30.15 in1021.0 mb - 0.00 in0.0 mm 0.00 in0.0 mm
04:45 AM 15.5°F-9.2°C 11.8°F-11.2°C 85% Calm Calm 2.3 mph3.7 kmh 30.15 in1021.0 mb - 0.00 in0.0 mm 0.00 in0.0 mm
04:40 AM 15.6°F-9.1°C 11.9°F-11.2°C 85% Calm Calm 1.2 mph1.9 kmh 30.15 in1021.0 mb - 0.00 in0.0 mm 0.00 in0.0 mm
04:35 AM 15.7°F-9.1°C 12.0°F-11.1°C 85% Calm Calm 1.2 mph1.9 kmh 30.15 in1021.0 mb - 0.00 in0.0 mm 0.00 in0.0 mm
04:30 AM 15.8°F-9.0°C 12.1°F-11.1°C 85% Calm Calm -- 30.15 in1021.0 mb - 0.00 in0.0 mm 0.00 in0.0 mm
04:25 AM 15.9°F-8.9°C 12.2°F-11.0°C 85% Calm Calm -- 30.16 in1021.3 mb - 0.00 in0.0 mm 0.00 in0.0 mm
04:20 AM 16.0°F-8.9°C 12.3°F-10.9°C 85% Calm Calm -- 30.15 in1021.0 mb - 0.00 in0.0 mm 0.00 in0.0 mm
04:15 AM 16.1°F-8.8°C 12.1°F-11.1°C 84% Calm Calm 1.2 mph1.9 kmh 30.16 in1021.3 mb - 0.00 in0.0 mm 0.00 in0.0 mm
04:10 AM 16.3°F-8.7°C 12.3°F-10.9°C 84% Calm Calm -- 30.16 in1021.3 mb - 0.00 in0.0 mm 0.00 in0.0 mm
04:00 AM 16.5°F-8.6°C 12.5°F-10.8°C 84% Calm Calm -- 30.17 in1021.7 mb - 0.00 in0.0 mm 0.00 in0.0 mm
03:55 AM 16.6°F-8.6°C 12.6°F-10.8°C 84% Calm Calm -- 30.17 in1021.7 mb - 0.00 in0.0 mm 0.00 in0.0 mm
03:50 AM 16.7°F-8.5°C 12.7°F-10.7°C 84% Calm Calm -- 30.17 in1021.7 mb - 0.00 in0.0 mm 0.00 in0.0 mm
03:45 AM 16.8°F-8.4°C 12.8°F-10.7°C 84% Calm Calm -- 30.17 in1021.7 mb - 0.00 in0.0 mm 0.00 in0.0 mm
03:40 AM 16.9°F-8.4°C 12.9°F-10.6°C 84% Calm Calm -- 30.18 in1022.0 mb - 0.00 in0.0 mm 0.00 in0.0 mm
03:35 AM 17.0°F-8.3°C 12.8°F-10.7°C 83% Calm Calm -- 30.18 in1022.0 mb - 0.00 in0.0 mm 0.00 in0.0 mm
03:30 AM 17.2°F-8.2°C 12.9°F-10.6°C 83% Calm Calm -- 30.18 in1022.0 mb - 0.00 in0.0 mm 0.00 in0.0 mm
03:25 AM 17.3°F-8.2°C 13.0°F-10.6°C 83% Calm Calm -- 30.18 in1022.0 mb - 0.00 in0.0 mm 0.00 in0.0 mm
03:20 AM 17.5°F-8.1°C 13.2°F-10.4°C 83% Calm Calm 1.2 mph1.9 kmh 30.18 in1022.0 mb - 0.00 in0.0 mm 0.00 in0.0 mm
03:15 AM 17.5°F-8.1°C 13.2°F-10.4°C 83% Calm Calm -- 30.18 in1022.0 mb - 0.00 in0.0 mm 0.00 in0.0 mm
03:10 AM 17.7°F-7.9°C 13.4°F-10.3°C 83% 1.2 mph NW1.9 kmh NW 1.2 mph1.9 kmh 30.18 in1022.0 mb - 0.00 in0.0 mm 0.00 in0.0 mm
03:00 AM 17.8°F-7.9°C 13.6°F-10.2°C 83% Calm Calm 2.3 mph3.7 kmh 30.18 in1022.0 mb - 0.00 in0.0 mm 0.00 in0.0 mm
02:55 AM 17.9°F-7.8°C 13.6°F-10.2°C 83% 2.3 mph NW3.7 kmh NW 2.3 mph3.7 kmh 30.18 in1022.0 mb - 0.00 in0.0 mm 0.00 in0.0 mm
02:50 AM 17.9°F-7.8°C 13.6°F-10.2°C 83% 2.3 mph WNW3.7 kmh WNW 4.6 mph7.4 kmh 30.18 in1022.0 mb - 0.00 in0.0 mm 0.00 in0.0 mm
02:45 AM 17.9°F-7.8°C 13.6°F-10.2°C 83% 3.5 mph WNW5.6 kmh WNW 4.6 mph7.4 kmh 30.19 in1022.4 mb - 0.00 in0.0 mm 0.00 in0.0 mm
02:40 AM 17.9°F-7.8°C 13.6°F-10.2°C 83% 2.3 mph WNW3.7 kmh WNW 4.6 mph7.4 kmh 30.19 in1022.4 mb - 0.00 in0.0 mm 0.00 in0.0 mm
02:35 AM 18.0°F-7.8°C 13.7°F-10.2°C 83% 2.3 mph WNW3.7 kmh WNW 5.8 mph9.3 kmh 30.19 in1022.4 mb - 0.00 in0.0 mm 0.00 in0.0 mm
02:30 AM 17.9°F-7.8°C 13.6°F-10.2°C 83% 2.3 mph W3.7 kmh W 3.5 mph5.6 kmh 30.18 in1022.0 mb - 0.00 in0.0 mm 0.00 in0.0 mm
02:25 AM 17.9°F-7.8°C 13.6°F-10.2°C 83% 3.5 mph WNW5.6 kmh WNW 5.8 mph9.3 kmh 30.18 in1022.0 mb - 0.00 in0.0 mm 0.00 in0.0 mm
02:20 AM 18.0°F-7.8°C 13.7°F-10.2°C 83% 3.5 mph WNW5.6 kmh WNW 6.9 mph11.1 kmh 30.18 in1022.0 mb - 0.00 in0.0 mm 0.00 in0.0 mm
02:15 AM 18.1°F-7.7°C 13.8°F-10.1°C 83% 2.3 mph WNW3.7 kmh WNW 3.5 mph5.6 kmh 30.18 in1022.0 mb - 0.00 in0.0 mm 0.00 in0.0 mm
02:10 AM 18.2°F-7.7°C 13.9°F-10.1°C 83% 2.3 mph WNW3.7 kmh WNW 3.5 mph5.6 kmh 30.17 in1021.7 mb - 0.00 in0.0 mm 0.00 in0.0 mm
02:00 AM 18.3°F-7.6°C 14.0°F-10.0°C 83% 3.5 mph WNW5.6 kmh WNW 6.9 mph11.1 kmh 30.17 in1021.7 mb - 0.00 in0.0 mm 0.00 in0.0 mm
01:55 AM 18.2°F-7.7°C 13.9°F-10.1°C 83% 4.6 mph WNW7.4 kmh WNW 8.1 mph13.0 kmh 30.17 in1021.7 mb - 0.00 in0.0 mm 0.00 in0.0 mm
01:50 AM 18.1°F-7.7°C 13.8°F-10.1°C 83% 5.8 mph WNW9.3 kmh WNW 9.2 mph14.8 kmh 30.17 in1021.7 mb - 0.00 in0.0 mm 0.00 in0.0 mm
01:45 AM 17.9°F-7.8°C 13.6°F-10.2°C 83% 4.6 mph WNW7.4 kmh WNW 6.9 mph11.1 kmh 30.17 in1021.7 mb - 0.00 in0.0 mm 0.00 in0.0 mm
01:40 AM 17.7°F-7.9°C 13.4°F-10.3°C 83% 5.8 mph WNW9.3 kmh WNW 10.4 mph16.7 kmh 30.17 in1021.7 mb - 0.00 in0.0 mm 0.00 in0.0 mm
01:35 AM 17.6°F-8.0°C 13.3°F-10.4°C 83% 4.6 mph WNW7.4 kmh WNW 8.1 mph13.0 kmh 30.16 in1021.3 mb - 0.00 in0.0 mm 0.00 in0.0 mm
01:30 AM 17.6°F-8.0°C 13.0°F-10.6°C 82% 2.3 mph WNW3.7 kmh WNW 4.6 mph7.4 kmh 30.16 in1021.3 mb - 0.00 in0.0 mm 0.00 in0.0 mm
01:25 AM 17.7°F-7.9°C 12.9°F-10.6°C 81% 2.3 mph WNW3.7 kmh WNW 3.5 mph5.6 kmh 30.16 in1021.3 mb - 0.00 in0.0 mm 0.00 in0.0 mm
01:20 AM 18.0°F-7.8°C 12.8°F-10.7°C 80% 1.2 mph WNW1.9 kmh WNW 2.3 mph3.7 kmh 30.15 in1021.0 mb - 0.00 in0.0 mm 0.00 in0.0 mm
01:15 AM 18.2°F-7.7°C 13.1°F-10.5°C 80% Calm Calm 1.2 mph1.9 kmh 30.15 in1021.0 mb - 0.00 in0.0 mm 0.00 in0.0 mm
01:10 AM 18.4°F-7.6°C 13.3°F-10.4°C 80% 1.2 mph WNW1.9 kmh WNW 3.5 mph5.6 kmh 30.15 in1021.0 mb - 0.00 in0.0 mm 0.00 in0.0 mm
01:00 AM 18.9°F-7.3°C 13.2°F-10.4°C 78% 1.2 mph NW1.9 kmh NW 5.8 mph9.3 kmh 30.16 in1021.3 mb - 0.00 in0.0 mm 0.00 in0.0 mm
12:55 AM 19.2°F-7.1°C 13.5°F-10.3°C 78% 1.2 mph WNW1.9 kmh WNW 2.3 mph3.7 kmh 30.16 in1021.3 mb - 0.00 in0.0 mm 0.00 in0.0 mm
12:50 AM 19.7°F-6.8°C 13.4°F-10.3°C 76% 2.3 mph W3.7 kmh W 2.3 mph3.7 kmh 30.15 in1021.0 mb - 0.00 in0.0 mm 0.00 in0.0 mm
12:45 AM 19.8°F-6.8°C 13.5°F-10.3°C 76% 2.3 mph WNW3.7 kmh WNW 3.5 mph5.6 kmh 30.16 in1021.3 mb - 0.00 in0.0 mm 0.00 in0.0 mm
12:40 AM 20.1°F-6.6°C 13.7°F-10.2°C 76% 2.3 mph W3.7 kmh W 3.5 mph5.6 kmh 30.15 in1021.0 mb - 0.00 in0.0 mm 0.00 in0.0 mm
12:35 AM 20.3°F-6.5°C 13.6°F-10.2°C 75% 3.5 mph WNW5.6 kmh WNW 6.9 mph11.1 kmh 30.15 in1021.0 mb - 0.00 in0.0 mm 0.00 in0.0 mm
12:30 AM 20.4°F-6.4°C 13.7°F-10.2°C 75% 8.1 mph WNW13.0 kmh WNW 10.4 mph16.7 kmh 30.15 in1021.0 mb - 0.00 in0.0 mm 0.00 in0.0 mm
12:25 AM 20.5°F-6.4°C 13.5°F-10.3°C 74% 9.2 mph NW14.8 kmh NW 12.7 mph20.4 kmh 30.15 in1021.0 mb - 0.00 in0.0 mm 0.00 in0.0 mm
12:20 AM 20.6°F-6.3°C 13.6°F-10.2°C 74% 9.2 mph NW14.8 kmh NW 11.5 mph18.5 kmh 30.15 in1021.0 mb - 0.00 in0.0 mm 0.00 in0.0 mm
12:15 AM 20.6°F-6.3°C 13.6°F-10.2°C 74% 10.4 mph NW16.7 kmh NW 12.7 mph20.4 kmh 30.15 in1021.0 mb - 0.00 in0.0 mm 0.00 in0.0 mm
12:10 AM 20.6°F-6.3°C 13.9°F-10.1°C 75% 11.5 mph NW18.5 kmh NW 16.1 mph25.9 kmh 30.15 in1021.0 mb - 0.00 in0.0 mm 0.00 in0.0 mm
12:00 AM 20.7°F-6.3°C 14.0°F-10.0°C 75% 9.2 mph NW14.8 kmh NW 12.7 mph20.4 kmh 30.15 in1021.0 mb - 0.00 in0.0 mm 0.00 in0.0 mm